Time;durP1;ratioP1;P1;durP2;ratioP2;P2;SDS_P1;SDS_P2;PMS_P1;PMS_P2;Temp;Humidity;BMP_temperature;BMP_pressure;BME280_temperature;BME280_humidity;BME280_pressure;Samples;Min_cycle;Max_cycle;Signal;HPM_P1;HPM_P2
2021/03/05 15:27:24;;;;;;;55.42;36.95;;;487.10;640.00;;;;;;5290383;23;1098473;-71
2021/03/05 15:29:50;;;;;;;65.05;42.33;;;487.10;640.00;;;;;;5011223;28;20044;-71
2021/03/05 15:32:16;;;;;;;44.30;26.63;;;487.10;665.60;;;;;;5006301;28;20383;-72
2021/03/05 15:34:41;;;;;;;39.38;26.70;;;486.80;742.40;;;;;;4994471;28;20376;-71
2021/03/05 15:37:07;;;;;;;39.78;21.73;;;486.60;793.60;;;;;;5007046;28;20503;-71
2021/03/05 15:39:33;;;;;;;52.13;30.00;;;486.40;793.60;;;;;;5013184;28;20030;-72
2021/03/05 15:41:58;;;;;;;88.68;52.63;;;486.40;793.60;;;;;;4997411;28;20034;-71
2021/03/05 15:44:25;;;;;;;70.30;38.70;;;461.70;793.60;;;;;;5015549;28;20108;-71
2021/03/05 15:46:51;;;;;;;89.35;55.58;;;461.60;819.20;;;;;;5014132;28;20448;-71
2021/03/05 15:49:17;;;;;;;94.05;58.70;;;461.50;819.20;;;;;;5002026;28;20034;-71
2021/03/05 15:51:42;;;;;;;66.85;40.38;;;461.40;844.80;;;;;;5014935;28;20029;-71
2021/03/05 15:54:08;;;;;;;85.25;52.67;;;461.40;844.80;;;;;;5015350;28;20032;-72
2021/03/05 15:56:34;;;;;;;52.30;33.67;;;461.20;844.80;;;;;;5015155;28;20026;-71
2021/03/05 15:59:00;;;;;;;70.28;42.83;;;461.20;844.80;;;;;;5015399;28;20061;-71
2021/03/05 16:01:26;;;;;;;59.70;40.83;;;461.10;844.80;;;;;;5015014;28;20432;-71
2021/03/05 16:03:51;;;;;;;56.42;40.20;;;461.20;819.20;;;;;;5015159;28;20030;-72
2021/03/05 16:06:17;;;;;;;63.17;37.00;;;461.00;844.80;;;;;;5015068;28;20026;-71
2021/03/05 16:08:43;;;;;;;62.53;42.42;;;461.20;844.80;;;;;;5014763;28;20054;-78
2021/03/05 16:11:09;;;;;;;43.33;30.83;;;461.10;870.40;;;;;;5015024;28;20128;-83
2021/03/05 16:13:34;;;;;;;56.75;33.65;;;461.00;870.40;;;;;;5020059;28;20528;-75
2021/03/05 16:16:00;;;;;;;43.28;30.17;;;460.90;870.40;;;;;;5034487;28;20483;-75
2021/03/05 16:18:26;;;;;;;40.53;27.25;;;460.90;870.40;;;;;;5020010;28;20026;-77
2021/03/05 16:20:51;;;;;;;48.17;29.55;;;460.80;844.80;;;;;;5008048;28;20026;-80
2021/03/05 16:23:17;;;;;;;52.60;30.38;;;460.80;844.80;;;;;;5007996;28;20488;-71
2021/03/05 16:25:43;;;;;;;60.92;33.50;;;436.10;844.80;;;;;;5014620;28;20472;-78
2021/03/05 16:28:09;;;;;;;45.63;29.90;;;460.80;870.40;;;;;;5014592;28;20088;-72
2021/03/05 16:30:34;;;;;;;43.63;27.77;;;460.80;870.40;;;;;;5014877;28;20113;-73
2021/03/05 16:33:00;;;;;;;50.05;30.60;;;460.80;870.40;;;;;;5006788;28;20022;-72
2021/03/05 16:35:26;;;;;;;46.45;30.55;;;436.10;870.40;;;;;;4994856;28;20026;-73
2021/03/05 16:37:52;;;;;;;54.80;38.03;;;436.10;870.40;;;;;;4994719;28;20030;-70
2021/03/05 16:40:17;;;;;;;46.08;28.67;;;436.00;870.40;;;;;;4994927;28;20030;-72
2021/03/05 16:42:43;;;;;;;50.95;28.65;;;435.90;896.00;;;;;;4995010;28;20382;-70
2021/03/05 16:45:10;;;;;;;58.40;38.67;;;435.90;896.00;;;;;;4994058;28;20061;-78
2021/03/05 16:47:36;;;;;;;50.15;32.78;;;435.90;896.00;;;;;;4993683;28;20039;-74
2021/03/05 16:50:02;;;;;;;42.33;28.25;;;435.80;896.00;;;;;;5003556;28;20022;-72
2021/03/05 16:52:28;;;;;;;54.75;32.30;;;435.70;896.00;;;;;;5002837;28;20068;-70
2021/03/05 16:54:54;;;;;;;50.03;32.05;;;435.60;896.00;;;;;;4991048;28;20057;-70
2021/03/05 16:57:20;;;;;;;54.42;33.22;;;435.60;896.00;;;;;;5014049;28;20101;-73
2021/03/05 16:59:45;;;;;;;62.58;39.58;;;435.60;896.00;;;;;;5006867;28;20424;-74
2021/03/05 17:02:11;;;;;;;69.95;46.38;;;435.60;896.00;;;;;;5011535;28;20022;-84
2021/03/05 17:04:37;;;;;;;71.28;44.92;;;435.60;896.00;;;;;;4972995;28;20038;-78
2021/03/05 17:07:03;;;;;;;70.55;45.17;;;435.70;896.00;;;;;;5008372;28;20022;-72
2021/03/05 17:09:30;;;;;;;61.25;39.03;;;435.70;896.00;;;;;;5013669;28;20480;-73
2021/03/05 17:11:56;;;;;;;79.78;48.10;;;435.70;896.00;;;;;;5013361;28;20156;-74
2021/03/05 17:14:22;;;;;;;69.40;38.33;;;435.70;896.00;;;;;;5021406;28;20475;-72
2021/03/05 17:16:47;;;;;;;62.10;35.42;;;435.60;921.60;;;;;;5012860;28;20061;-72
2021/03/05 17:19:13;;;;;;;55.58;34.55;;;435.50;947.20;;;;;;5013489;28;20565;-72
2021/03/05 17:21:39;;;;;;;71.38;43.65;;;435.50;947.20;;;;;;5013362;28;20064;-72
2021/03/05 17:24:06;;;;;;;49.92;33.08;;;435.30;947.20;;;;;;5013719;28;20498;-72
2021/03/05 17:26:32;;;;;;;52.95;34.92;;;435.30;972.80;;;;;;5012775;28;20073;-71
2021/03/05 17:28:58;;;;;;;55.45;34.67;;;435.30;972.80;;;;;;5012816;28;20500;-71
2021/03/05 17:31:24;;;;;;;56.78;33.08;;;435.20;998.40;;;;;;5011311;28;20053;-71
2021/03/05 17:33:49;;;;;;;45.45;29.00;;;435.20;998.40;;;;;;5013427;28;20033;-74
2021/03/05 17:36:15;;;;;;;52.88;31.08;;;410.40;1024.00;;;;;;5013274;28;20211;-71
2021/03/05 17:38:41;;;;;;;52.72;34.75;;;410.40;1024.00;;;;;;5012837;28;20495;-70
2021/03/05 17:41:06;;;;;;;50.55;33.15;;;410.30;1049.60;;;;;;5013058;28;20033;-70
2021/03/05 17:43:32;;;;;;;54.03;38.08;;;410.20;1075.20;;;;;;5013306;28;20026;-72
2021/03/05 17:45:58;;;;;;;54.63;35.42;;;410.20;1049.60;;;;;;5012948;28;20074;-71
2021/03/05 17:48:24;;;;;;;66.90;42.67;;;410.20;1049.60;;;;;;5012935;28;20112;-70
2021/03/05 17:50:49;;;;;;;67.75;47.25;;;410.20;1049.60;;;;;;4995134;28;20033;-72
2021/03/05 17:53:17;;;;;;;55.65;35.13;;;410.20;1049.60;;;;;;5013020;28;20022;-72
2021/03/05 17:55:45;;;;;;;42.20;30.40;;;410.20;1049.60;;;;;;5012589;28;20341;-72
2021/03/05 17:58:11;;;;;;;51.95;35.13;;;410.20;1049.60;;;;;;4994690;28;20022;-71
2021/03/05 18:00:36;;;;;;;63.35;38.88;;;410.20;1049.60;;;;;;5009789;28;20032;-72
2021/03/05 18:03:03;;;;;;;68.25;46.25;;;410.30;1049.60;;;;;;5010151;28;20056;-72
2021/03/05 18:05:29;;;;;;;72.05;45.53;;;410.30;1049.60;;;;;;5012939;28;20105;-71
2021/03/05 18:07:55;;;;;;;80.68;53.03;;;410.40;1024.00;;;;;;5012397;28;20034;-71
2021/03/05 18:10:20;;;;;;;90.88;59.10;;;410.40;1024.00;;;;;;5012731;28;20526;-72
2021/03/05 18:12:47;;;;;;;106.88;73.88;;;410.40;1024.00;;;;;;5012952;28;20022;-72
2021/03/05 18:15:13;;;;;;;91.95;62.30;;;410.40;1049.60;;;;;;5012551;28;20117;-72
2021/03/05 18:17:40;;;;;;;107.85;73.63;;;410.40;1049.60;;;;;;5012619;28;20030;-71
2021/03/05 18:20:07;;;;;;;97.78;67.68;;;410.40;1049.60;;;;;;4993488;28;20115;-70
2021/03/05 18:22:33;;;;;;;113.30;78.57;;;410.30;1049.60;;;;;;5012267;28;20396;-72
2021/03/05 18:24:59;;;;;;;126.35;84.47;;;410.30;1049.60;;;;;;5012149;28;20125;-71
2021/03/05 18:27:25;;;;;;;138.30;84.25;;;410.40;1049.60;;;;;;5006772;28;20048;-71
2021/03/05 18:29:50;;;;;;;141.70;90.20;;;410.30;1049.60;;;;;;5012045;28;20097;-72
2021/03/05 18:32:16;;;;;;;116.88;80.93;;;410.20;1049.60;;;;;;5050317;23;20056;-71
2021/03/05 18:34:42;;;;;;;102.97;67.00;;;410.10;1075.20;;;;;;5040463;28;20033;-70
2021/03/05 18:37:08;;;;;;;99.32;66.35;;;409.90;1075.20;;;;;;5016191;28;20033;-71
2021/03/05 18:39:34;;;;;;;145.60;95.25;;;409.80;1075.20;;;;;;5032271;28;20140;-72
2021/03/05 18:41:59;;;;;;;281.10;156.32;;;410.00;1075.20;;;;;;5013621;28;20179;-72
2021/03/05 18:44:25;;;;;;;136.75;90.45;;;410.00;1075.20;;;;;;5031838;28;20045;-71
2021/03/05 18:46:51;;;;;;;135.13;92.25;;;410.20;1075.20;;;;;;5037999;28;20037;-70
2021/03/05 18:49:17;;;;;;;129.13;86.32;;;410.30;1100.80;;;;;;5035996;28;20021;-71
2021/03/05 18:51:43;;;;;;;128.77;82.50;;;410.30;1126.40;;;;;;5031950;28;20387;-72
2021/03/05 18:54:09;;;;;;;195.18;101.55;;;410.20;1177.60;;;;;;5032379;28;20040;-71
2021/03/05 18:56:34;;;;;;;41.95;27.98;;;410.00;1177.60;;;;;;5031924;28;20040;-70
2021/03/05 18:59:00;;;;;;;64.68;35.28;;;409.60;1228.80;;;;;;5032103;28;20029;-71
2021/03/05 19:01:26;;;;;;;71.72;41.17;;;384.70;1254.40;;;;;;5031972;28;20018;-71
2021/03/05 19:03:52;;;;;;;49.55;31.08;;;384.70;1280.00;;;;;;5030664;28;20033;-71
2021/03/05 19:06:18;;;;;;;53.55;32.38;;;384.60;1356.80;;;;;;5031740;28;20395;-71
2021/03/05 19:08:43;;;;;;;61.85;33.63;;;384.60;1331.20;;;;;;5031667;28;20026;-72
2021/03/05 19:11:09;;;;;;;59.72;34.28;;;384.60;1356.80;;;;;;5032925;28;20032;-71
2021/03/05 19:13:35;;;;;;;56.10;37.55;;;384.70;1331.20;;;;;;5036093;28;20029;-72
2021/03/05 19:16:01;;;;;;;43.28;31.60;;;384.70;1356.80;;;;;;5036246;28;20030;-72
2021/03/05 19:18:27;;;;;;;72.63;56.97;;;384.70;1356.80;;;;;;5035855;28;20052;-72
2021/03/05 19:20:53;;;;;;;84.78;68.88;;;384.70;1331.20;;;;;;5035779;28;20443;-71
2021/03/05 19:23:18;;;;;;;78.25;69.72;;;384.70;1356.80;;;;;;5035789;28;20041;-71
2021/03/05 19:25:44;;;;;;;90.72;81.28;;;384.70;1356.80;;;;;;5035410;28;20017;-72
2021/03/05 19:28:11;;;;;;;94.57;84.28;;;384.70;1356.80;;;;;;5035908;28;20029;-71
2021/03/05 19:30:37;;;;;;;55.15;42.15;;;384.60;1382.40;;;;;;5035580;28;20020;-72
2021/03/05 19:33:03;;;;;;;62.47;46.65;;;384.40;1408.00;;;;;;5046595;28;20072;-73
2021/03/05 19:35:29;;;;;;;195.73;120.47;;;384.40;1433.60;;;;;;5055454;28;20021;-71
2021/03/05 19:37:55;;;;;;;120.82;75.40;;;384.20;1408.00;;;;;;5015580;28;20051;-71
2021/03/05 19:40:21;;;;;;;105.65;62.38;;;384.20;1408.00;;;;;;5017014;28;20034;-71
2021/03/05 19:42:47;;;;;;;197.57;118.10;;;384.30;1408.00;;;;;;5020161;28;20022;-70
2021/03/05 19:45:13;;;;;;;96.97;63.50;;;384.30;1459.20;;;;;;5035100;28;20040;-71
2021/03/05 19:47:39;;;;;;;70.35;46.45;;;384.40;1433.60;;;;;;5034904;28;20041;-72
2021/03/05 19:50:05;;;;;;;86.28;57.42;;;384.40;1459.20;;;;;;5035253;28;20018;-72
2021/03/05 19:52:31;;;;;;;67.35;47.42;;;384.30;1484.80;;;;;;5035208;28;20029;-72
2021/03/05 19:54:56;;;;;;;75.80;54.20;;;384.20;1484.80;;;;;;5034796;28;20083;-73
2021/03/05 19:57:22;;;;;;;83.70;63.22;;;384.30;1484.80;;;;;;5024542;28;20033;-71
2021/03/05 19:59:48;;;;;;;63.95;48.22;;;384.10;1484.80;;;;;;5018618;28;20476;-71
2021/03/05 20:02:13;;;;;;;73.25;54.67;;;384.00;1510.40;;;;;;5025705;28;20029;-73
2021/03/05 20:04:39;;;;;;;78.35;51.90;;;359.30;1536.00;;;;;;5024315;28;20391;-72
2021/03/05 20:07:05;;;;;;;73.97;53.80;;;359.30;1536.00;;;;;;5014848;28;20038;-71
2021/03/05 20:09:31;;;;;;;63.17;47.17;;;384.00;1536.00;;;;;;5021680;28;20022;-71
2021/03/05 20:11:57;;;;;;;59.92;47.30;;;359.20;1561.60;;;;;;5027556;28;20160;-71
2021/03/05 20:14:24;;;;;;;62.88;45.22;;;359.30;1561.60;;;;;;5008774;28;20088;-72
2021/03/05 20:16:51;;;;;;;53.38;37.85;;;359.30;1561.60;;;;;;5028798;28;20122;-72
2021/03/05 20:19:17;;;;;;;63.45;51.08;;;384.00;1561.60;;;;;;5022133;28;20022;-72
2021/03/05 20:21:43;;;;;;;78.93;59.60;;;359.30;1561.60;;;;;;5021712;28;20041;-72
2021/03/05 20:24:09;;;;;;;80.57;64.07;;;359.30;1587.20;;;;;;5027466;28;20060;-71
2021/03/05 20:26:35;;;;;;;84.40;64.70;;;359.30;1587.20;;;;;;5025212;28;20026;-72
2021/03/05 20:29:01;;;;;;;68.68;57.67;;;359.20;1612.80;;;;;;5019571;28;20048;-71
2021/03/05 20:31:28;;;;;;;68.88;52.97;;;359.30;1612.80;;;;;;5033758;28;20032;-73
2021/03/05 20:33:54;;;;;;;57.97;44.90;;;359.20;1612.80;;;;;;5028645;28;20089;-72
2021/03/05 20:36:19;;;;;;;64.85;49.50;;;359.10;1638.40;;;;;;5034010;28;20029;-73
2021/03/05 20:38:45;;;;;;;56.38;40.97;;;359.10;1664.00;;;;;;5034504;28;20029;-72
2021/03/05 20:41:11;;;;;;;60.78;42.30;;;359.20;1638.40;;;;;;5034039;28;20364;-73
2021/03/05 20:43:37;;;;;;;54.50;42.90;;;358.90;1689.60;;;;;;5016472;28;20064;-73
2021/03/05 20:46:02;;;;;;;59.53;39.63;;;358.90;1715.20;;;;;;5024736;28;20033;-72
2021/03/05 20:48:28;;;;;;;61.97;39.90;;;358.70;1740.80;;;;;;5034035;28;20047;-75
2021/03/05 20:50:54;;;;;;;58.20;41.28;;;358.70;1740.80;;;;;;5034034;28;20031;-72
2021/03/05 20:53:19;;;;;;;69.32;52.95;;;358.60;1740.80;;;;;;5021327;28;20083;-74
2021/03/05 20:55:45;;;;;;;65.35;46.80;;;358.60;1740.80;;;;;;5034172;28;20053;-73
2021/03/05 20:58:11;;;;;;;74.45;52.53;;;358.70;1740.80;;;;;;5033726;28;20026;-72
2021/03/05 21:00:37;;;;;;;76.38;51.22;;;358.70;1766.40;;;;;;5034041;28;20083;-74
2021/03/05 21:03:02;;;;;;;67.60;46.95;;;358.60;1766.40;;;;;;5033507;28;20041;-72
2021/03/05 21:05:28;;;;;;;38.40;29.58;;;358.40;1740.80;;;;;;5033758;28;20139;-73
2021/03/05 21:07:54;;;;;;;42.97;29.40;;;333.40;1664.00;;;;;;5033567;28;20041;-71
2021/03/05 21:10:19;;;;;;;45.67;33.30;;;333.20;1715.20;;;;;;5033909;28;20014;-72
2021/03/05 21:12:45;;;;;;;43.85;32.63;;;333.10;1715.20;;;;;;5033450;28;20025;-72
2021/03/05 21:15:12;;;;;;;42.00;34.28;;;332.90;1715.20;;;;;;5033650;28;20380;-71
2021/03/05 21:17:37;;;;;;;41.63;32.72;;;308.10;1715.20;;;;;;5033476;28;20506;-72
2021/03/05 21:20:04;;;;;;;47.90;32.20;;;307.80;1766.40;;;;;;5022162;28;20042;-72
2021/03/05 21:22:30;;;;;;;46.65;36.83;;;307.90;1740.80;;;;;;5033498;28;20018;-71
2021/03/05 21:24:56;;;;;;;38.63;29.23;;;308.00;1715.20;;;;;;5033556;28;20031;-70
2021/03/05 21:27:22;;;;;;;35.72;29.00;;;307.70;1715.20;;;;;;5032531;28;20393;-72
2021/03/05 21:29:47;;;;;;;34.20;25.23;;;307.50;1766.40;;;;;;5028958;28;20041;-71
2021/03/05 21:32:13;;;;;;;33.42;23.45;;;307.50;1766.40;;;;;;5025093;28;20544;-72
2021/03/05 21:34:40;;;;;;;39.42;27.83;;;307.20;1766.40;;;;;;5017514;28;20096;-74
2021/03/05 21:37:06;;;;;;;37.03;23.83;;;282.40;1740.80;;;;;;5026540;28;20082;-71
2021/03/05 21:39:33;;;;;;;28.95;19.85;;;282.20;1715.20;;;;;;5032337;28;20061;-72
2021/03/05 21:41:59;;;;;;;28.48;21.23;;;281.90;1689.60;;;;;;5014523;28;20474;-71
2021/03/05 21:44:25;;;;;;;27.80;20.80;;;281.90;1715.20;;;;;;5031037;28;20068;-71
2021/03/05 21:46:51;;;;;;;26.88;20.33;;;281.70;1715.20;;;;;;5015462;28;20029;-71
2021/03/05 21:49:16;;;;;;;28.27;19.75;;;281.70;1689.60;;;;;;5028712;28;20391;-71
2021/03/05 21:51:45;;;;;;;31.33;22.67;;;281.70;1689.60;;;;;;5032994;28;20049;-71
2021/03/05 21:54:12;;;;;;;33.83;24.73;;;281.80;1715.20;;;;;;5032954;28;20021;-72
2021/03/05 21:56:38;;;;;;;35.72;27.42;;;281.70;1715.20;;;;;;5032723;28;20133;-72
2021/03/05 21:59:04;;;;;;;45.53;30.90;;;281.70;1689.60;;;;;;5032748;28;20535;-71
2021/03/05 22:01:30;;;;;;;27.80;21.67;;;281.70;1689.60;;;;;;5032626;28;20060;-71
2021/03/05 22:03:55;;;;;;;28.50;21.27;;;281.80;1689.60;;;;;;5032691;28;20049;-72
2021/03/05 22:06:22;;;;;;;27.08;18.98;;;281.60;1664.00;;;;;;5032647;28;20071;-71
2021/03/05 22:08:47;;;;;;;43.30;26.92;;;256.80;1689.60;;;;;;5032552;28;20098;-71
2021/03/05 22:11:13;;;;;;;28.30;20.52;;;281.70;1689.60;;;;;;5032794;28;20037;-71
2021/03/05 22:13:39;;;;;;;29.23;21.92;;;281.60;1689.60;;;;;;5032214;28;20025;-71
2021/03/05 22:16:05;;;;;;;33.50;24.13;;;281.70;1664.00;;;;;;5032716;28;20029;-71
2021/03/05 22:18:31;;;;;;;43.78;32.25;;;281.70;1664.00;;;;;;5020621;28;20492;-71
2021/03/05 22:20:57;;;;;;;33.83;23.65;;;281.70;1664.00;;;;;;5032541;28;20021;-72
2021/03/05 22:23:22;;;;;;;37.90;27.00;;;256.90;1612.80;;;;;;5032185;28;20132;-72
2021/03/05 22:25:48;;;;;;;36.05;22.75;;;256.80;1664.00;;;;;;5032456;28;20085;-71
2021/03/05 22:28:14;;;;;;;35.05;23.38;;;256.60;1664.00;;;;;;5032077;28;20026;-71
2021/03/05 22:30:39;;;;;;;35.85;23.83;;;256.30;1664.00;;;;;;5032334;28;20021;-72
2021/03/05 22:33:05;;;;;;;32.53;21.40;;;256.10;1689.60;;;;;;5031939;28;20081;-71
2021/03/05 22:35:31;;;;;;;31.90;21.90;;;256.40;1715.20;;;;;;5032214;28;20059;-73
2021/03/05 22:37:58;;;;;;;29.10;22.38;;;256.50;1664.00;;;;;;5032090;28;20033;-73
2021/03/05 22:40:24;;;;;;;33.13;24.08;;;256.40;1689.60;;;;;;5032390;28;20035;-72
2021/03/05 22:42:50;;;;;;;33.08;23.27;;;256.20;1689.60;;;;;;5031915;28;20120;-72
2021/03/05 22:45:17;;;;;;;31.90;23.00;;;256.20;1689.60;;;;;;5031686;28;20104;-76
2021/03/05 22:47:42;;;;;;;30.40;21.80;;;256.10;1689.60;;;;;;5031721;28;20030;-73
2021/03/05 22:50:09;;;;;;;29.42;20.25;;;256.10;1664.00;;;;;;5032250;28;20100;-72
2021/03/05 22:52:34;;;;;;;34.53;23.98;;;231.30;1689.60;;;;;;5032005;28;20029;-71
2021/03/05 22:55:00;;;;;;;25.40;19.17;;;231.30;1715.20;;;;;;5032294;28;20084;-72
2021/03/05 22:57:26;;;;;;;26.67;19.92;;;231.20;1715.20;;;;;;5029893;28;20425;-72
2021/03/05 22:59:52;;;;;;;29.00;20.40;;;231.10;1740.80;;;;;;5031685;28;20053;-73
2021/03/05 23:02:17;;;;;;;23.27;17.73;;;231.20;1715.20;;;;;;5030368;28;20022;-74
2021/03/05 23:04:43;;;;;;;21.90;17.58;;;231.10;1689.60;;;;;;5031903;28;20110;-72
2021/03/05 23:07:09;;;;;;;28.20;20.52;;;231.10;1715.20;;;;;;5031707;28;20025;-72
2021/03/05 23:09:34;;;;;;;27.95;20.63;;;230.90;1740.80;;;;;;5031703;28;20025;-71
2021/03/05 23:12:01;;;;;;;42.35;27.35;;;230.90;1740.80;;;;;;5031784;28;20021;-71
2021/03/05 23:14:27;;;;;;;31.42;22.70;;;230.90;1766.40;;;;;;5024688;28;20037;-70
2021/03/05 23:16:53;;;;;;;28.05;20.75;;;230.80;1766.40;;;;;;5031925;28;20033;-71
2021/03/05 23:19:18;;;;;;;25.15;20.67;;;230.80;1740.80;;;;;;5031948;28;20018;-72
2021/03/05 23:21:44;;;;;;;27.27;20.88;;;230.80;1740.80;;;;;;5032016;28;20044;-72
2021/03/05 23:24:10;;;;;;;28.02;21.02;;;230.90;1740.80;;;;;;5031706;28;20117;-72
2021/03/05 23:26:37;;;;;;;28.38;21.42;;;230.90;1740.80;;;;;;5031588;28;20021;-71
2021/03/05 23:29:05;;;;;;;25.40;20.42;;;230.70;1766.40;;;;;;5031605;28;20503;-70
2021/03/05 23:31:31;;;;;;;29.95;21.60;;;230.90;1740.80;;;;;;5031601;28;20026;-72
2021/03/05 23:33:57;;;;;;;28.25;20.13;;;230.90;1740.80;;;;;;5031309;28;20049;-73
2021/03/05 23:36:22;;;;;;;26.10;19.85;;;230.80;1740.80;;;;;;5031753;28;20419;-70
2021/03/05 23:38:48;;;;;;;23.38;18.50;;;230.70;1766.40;;;;;;5031636;28;20080;-72
2021/03/05 23:41:14;;;;;;;30.00;20.83;;;230.70;1740.80;;;;;;5031549;28;20486;-71
2021/03/05 23:43:39;;;;;;;31.38;23.33;;;230.60;1792.00;;;;;;5031467;28;20087;-71
2021/03/05 23:46:05;;;;;;;29.98;22.70;;;230.80;1715.20;;;;;;5031190;28;20064;-72
2021/03/05 23:48:31;;;;;;;20.83;17.63;;;230.90;1740.80;;;;;;5031568;28;20030;-72
2021/03/05 23:50:56;;;;;;;23.80;19.77;;;230.70;1740.80;;;;;;5031358;28;20028;-71
2021/03/05 23:53:22;;;;;;;27.67;21.20;;;230.70;1766.40;;;;;;5031197;28;20480;-71
2021/03/05 23:55:48;;;;;;;33.25;22.02;;;230.80;1740.80;;;;;;5016466;28;20097;-72
2021/03/05 23:58:14;;;;;;;27.23;20.25;;;230.80;1766.40;;;;;;5033467;28;20056;-71
